KNUW/NUW METAR and TAF weather

Enter ICAO airport designator
Station Type Date Time Source
KNUW METAR 2021/05/14 02:56 UTC NOAA

KNUW 140256Z 27003KT 10SM FEW025 FEW250 12/09 A3018 RMK AO2 SLP218 T01170089 55008


Station Type Date Time Source
KNUW Decoded METAR 2021/05/14 02:56 UTC NOAA

NAS WHIDBEY ISLAND, WA, United States (KNUW) 48-21N 122-39W 8M
May 13, 2021 - 10:56 PM EDT / 2021.05.14 0256 UTC
Wind: from the W (270 degrees) at 3 MPH (3 KT):0
Visibility: 10 mile(s):0
Sky conditions: mostly clear
Temperature: 53.1 F (11.7 C)
Dew Point: 48.0 F (8.9 C)
Relative Humidity: 82%
Pressure (altimeter): 30.18 in. Hg (1022 hPa)
Pressure tendency: 0.02 inches (0.8 hPa) lower than three hours ago
ob: KNUW 140256Z 27003KT 10SM FEW025 FEW250 12/09 A3018 RMK AO2 SLP218 T01170089 55008
cycle: 3

Station Type Date Time Source
KNUW TAF 2021/05/13 23:58 UTC NOAA

TAF KNUW 1323/1423 27008KT 9999 FEW035 SCT250 QNH3017INS
TEMPO 1400/1405 26006KT 4800 BR BKN005 BKN250
FM140500 VRB06KT 4800 BR OVC005 QNH3016INS
TEMPO 1409/1415 0800 FG VV003
FM141800 28008KT 9999 SCT035 SCT250 QNH3014INS T16/1423Z T06/1412Z FS30028

Example: see airport list